Crowley Lake, California
Current Conditions -  °F | °C
As of 5:15 PM on Friday 24 Oct 2014 (Local Time) from KMMH Reporting Station
Clear Clear  
Wind Chill: 66°   Ceiling: Unl
Heat Index: 66°   Visibility: 10mi
Dew Point: 10°   Wind: 5mph
Humidity: 11%   Direction: 70°ENE
Pressure: 30.15"   Gusts: 18mph
Location:  37.6599°N, 118.912°W
Report Text: KMMH 250015Z AUTO 07004G16KT 10SM CLR 19/M12 A3015 RMK AO1
Loading
Personal Weather Stations






























Interactive Weather Map
Tropical Storm Tracking
New forecast layout! Learn more

10-Day Weather Forecast

Advertisements
Track Severe Weather on mobile